createdAt,value
2019-06-26T00:01:26.464Z,73.47
2019-06-26T00:03:56.488Z,73.20
2019-06-26T00:06:28.365Z,73.07
2019-06-26T00:08:57.150Z,73.18
2019-06-26T00:11:28.673Z,73.17
2019-06-26T00:13:57.385Z,73.24
2019-06-26T00:16:29.074Z,73.27
2019-06-26T00:18:57.798Z,73.37
2019-06-26T00:21:27.960Z,73.47
2019-06-26T00:23:56.636Z,73.45
2019-06-26T00:26:28.090Z,73.46
2019-06-26T00:29:04.456Z,73.40
2019-06-26T00:31:33.444Z,73.33
2019-06-26T00:34:04.141Z,73.29
2019-06-26T00:36:33.515Z,73.36
2019-06-26T00:39:03.579Z,73.35
2019-06-26T00:41:49.710Z,73.42
2019-06-26T00:44:19.786Z,73.41
2019-06-26T00:46:55.058Z,73.55
2019-06-26T00:49:28.455Z,73.58
2019-06-26T00:51:57.931Z,73.64
2019-06-26T00:54:28.251Z,73.59
2019-06-26T00:56:57.513Z,73.65
2019-06-26T00:59:26.987Z,73.62
2019-06-26T01:01:55.858Z,73.57
2019-06-26T01:04:26.211Z,73.50
2019-06-26T01:06:54.864Z,73.45
2019-06-26T01:09:25.233Z,73.25
2019-06-26T01:11:57.321Z,73.27
2019-06-26T01:14:25.948Z,73.44
2019-06-26T01:16:54.823Z,73.54
2019-06-26T01:19:23.536Z,73.57
2019-06-26T01:21:54.416Z,73.63
2019-06-26T01:24:26.054Z,73.65
2019-06-26T01:26:55.379Z,73.64
2019-06-26T01:29:25.437Z,73.76
2019-06-26T01:31:57.167Z,73.85
2019-06-26T01:34:29.493Z,73.99
2019-06-26T01:36:58.151Z,73.94
2019-06-26T01:39:29.038Z,73.74
2019-06-26T01:41:58.172Z,73.60
2019-06-26T01:44:26.952Z,73.61
2019-06-26T01:46:56.782Z,73.72
2019-06-26T01:49:28.702Z,73.73
2019-06-26T01:52:02.218Z,73.82
2019-06-26T01:54:34.004Z,73.85
2019-06-26T01:57:04.387Z,73.81
2019-06-26T01:59:35.887Z,73.87
2019-06-26T02:02:05.639Z,74.00
2019-06-26T02:04:34.219Z,74.10
2019-06-26T02:07:03.300Z,74.30
2019-06-26T02:09:33.797Z,74.28
2019-06-26T02:12:03.498Z,74.19
2019-06-26T02:14:38.065Z,74.23
2019-06-26T02:17:09.782Z,74.34
2019-06-26T02:19:38.466Z,74.54
2019-06-26T02:22:16.029Z,74.60
2019-06-26T02:24:49.415Z,74.70
2019-06-26T02:27:20.280Z,74.82
2019-06-26T02:29:48.951Z,74.79
2019-06-26T02:32:22.186Z,74.89
2019-06-26T02:35:11.789Z,74.92
2019-06-26T02:37:40.512Z,74.75
2019-06-26T02:40:09.901Z,74.55
2019-06-26T02:42:41.239Z,74.58
2019-06-26T02:45:10.755Z,74.73
2019-06-26T02:47:42.349Z,74.80
2019-06-26T02:50:19.234Z,74.69
2019-06-26T02:52:47.869Z,74.74
2019-06-26T02:55:16.552Z,74.82
2019-06-26T02:57:49.814Z,74.65
2019-06-26T03:00:18.579Z,74.45
2019-06-26T03:02:49.988Z,74.31
2019-06-26T03:05:18.677Z,74.27
2019-06-26T03:07:49.818Z,74.29
2019-06-26T03:10:22.387Z,74.33
2019-06-26T03:12:52.484Z,74.40
2019-06-26T03:15:21.235Z,74.38
2019-06-26T03:17:55.712Z,74.67
2019-06-26T03:20:24.857Z,74.71
2019-06-26T03:22:57.067Z,74.97
2019-06-26T03:25:25.643Z,75.02
2019-06-26T03:27:55.759Z,75.25
2019-06-26T03:30:24.563Z,75.50
2019-06-26T03:32:53.220Z,75.51
2019-06-26T03:35:23.290Z,75.43
2019-06-26T03:37:52.019Z,75.62
2019-06-26T03:40:20.790Z,75.78
2019-06-26T03:42:49.421Z,75.75
2019-06-26T03:45:26.198Z,75.62
2019-06-26T03:47:51.651Z,75.63
2019-06-26T03:50:20.348Z,75.52
2019-06-26T03:52:51.257Z,75.66
2019-06-26T03:55:21.234Z,75.83
2019-06-26T03:57:50.680Z,75.76
2019-06-26T04:00:38.822Z,75.66
2019-06-26T04:03:12.999Z,75.63
2019-06-26T04:05:46.860Z,75.45
2019-06-26T04:08:18.680Z,75.38
2019-06-26T04:10:48.045Z,75.21
2019-06-26T04:13:18.295Z,75.12
2019-06-26T04:15:51.071Z,75.16
2019-06-26T04:18:20.931Z,75.21
2019-06-26T04:20:50.438Z,75.21
2019-06-26T04:23:22.221Z,75.17
2019-06-26T04:25:53.712Z,75.17
2019-06-26T04:28:22.721Z,75.13
2019-06-26T04:30:51.423Z,74.96
2019-06-26T04:33:20.053Z,74.94
2019-06-26T04:35:48.722Z,75.00
2019-06-26T04:38:17.444Z,75.09
2019-06-26T04:40:46.124Z,75.02
2019-06-26T04:43:14.762Z,74.91
2019-06-26T04:45:57.109Z,74.84
2019-06-26T04:48:13.713Z,74.78
2019-06-26T04:50:42.570Z,74.80
2019-06-26T04:53:11.224Z,74.82
2019-06-26T04:55:39.847Z,74.89
2019-06-26T04:58:08.514Z,75.05
2019-06-26T05:00:37.225Z,75.04
2019-06-26T05:03:05.988Z,75.15
2019-06-26T05:05:39.728Z,75.21
2019-06-26T05:08:05.105Z,75.39
2019-06-26T05:10:33.679Z,75.52
2019-06-26T05:13:02.328Z,75.59
2019-06-26T05:15:31.020Z,75.60
2019-06-26T05:17:59.793Z,75.54
2019-06-26T05:20:31.465Z,75.49
2019-06-26T05:23:00.108Z,75.48
2019-06-26T05:25:28.788Z,75.47
2019-06-26T05:27:57.529Z,75.48
2019-06-26T05:30:26.142Z,75.48
2019-06-26T05:32:54.799Z,75.48
2019-06-26T05:35:23.520Z,75.46
2019-06-26T05:37:52.217Z,75.37
2019-06-26T05:40:20.957Z,75.44
2019-06-26T05:46:31.087Z,75.42
2019-06-26T05:48:52.091Z,75.27
2019-06-26T05:51:20.857Z,75.11
2019-06-26T05:53:49.484Z,74.85
2019-06-26T05:56:18.145Z,74.58
2019-06-26T05:58:46.954Z,73.99
2019-06-26T06:01:15.840Z,72.69
2019-06-26T06:03:44.517Z,71.06
2019-06-26T06:06:13.162Z,69.41
2019-06-26T06:08:42.355Z,68.25
2019-06-26T06:11:11.049Z,66.78
2019-06-26T06:13:39.780Z,65.63
2019-06-26T06:16:08.409Z,65.16
2019-06-26T06:18:37.119Z,64.89
2019-06-26T06:21:05.870Z,64.61
2019-06-26T06:23:34.666Z,64.76
2019-06-26T06:26:03.461Z,64.60
2019-06-26T06:28:32.105Z,63.67
2019-06-26T06:31:00.890Z,62.77
2019-06-26T06:33:29.631Z,62.40
2019-06-26T06:35:58.332Z,61.74
2019-06-26T06:38:34.139Z,61.37
2019-06-26T06:41:02.869Z,60.68
2019-06-26T06:43:31.624Z,60.42
2019-06-26T06:46:00.254Z,59.96
2019-06-26T06:48:31.774Z,60.36
2019-06-26T06:51:00.461Z,61.23
2019-06-26T06:53:28.989Z,62.07
2019-06-26T06:55:57.648Z,62.79
2019-06-26T06:58:29.966Z,63.65
2019-06-26T07:00:56.736Z,64.18
2019-06-26T07:03:25.423Z,64.41
2019-06-26T07:05:54.116Z,64.43
2019-06-26T07:08:22.796Z,64.72
2019-06-26T07:10:51.478Z,65.16
2019-06-26T07:13:20.145Z,65.69
2019-06-26T07:15:48.845Z,66.04
2019-06-26T07:18:17.501Z,66.29
2019-06-26T07:20:46.141Z,66.37
2019-06-26T07:23:15.256Z,66.24
2019-06-26T07:25:43.974Z,66.03
2019-06-26T07:28:12.802Z,65.88
2019-06-26T07:30:41.548Z,65.69
2019-06-26T07:33:10.230Z,65.35
2019-06-26T07:35:39.005Z,65.18
2019-06-26T07:38:07.843Z,64.81
2019-06-26T07:40:36.584Z,64.39
2019-06-26T07:43:06.111Z,63.55
2019-06-26T07:45:34.680Z,62.90
2019-06-26T07:48:03.478Z,62.54
2019-06-26T07:50:32.758Z,62.56
2019-06-26T07:53:04.618Z,62.87
2019-06-26T07:55:33.566Z,63.15
2019-06-26T07:58:02.204Z,63.36
2019-06-26T08:00:31.839Z,63.19
2019-06-26T08:03:04.106Z,62.86
2019-06-26T08:05:31.181Z,63.08
2019-06-26T08:08:00.292Z,63.54
2019-06-26T08:10:29.244Z,64.10
2019-06-26T08:12:58.414Z,64.82
2019-06-26T08:15:30.617Z,65.36
2019-06-26T08:18:03.445Z,65.66
2019-06-26T08:20:51.583Z,65.86
2019-06-26T08:23:15.347Z,65.80
2019-06-26T08:25:44.291Z,65.50
2019-06-26T08:28:13.324Z,65.60
2019-06-26T08:30:42.090Z,65.61
2019-06-26T08:33:22.647Z,65.72
2019-06-26T08:35:52.689Z,65.48
2019-06-26T08:38:24.349Z,65.00
2019-06-26T08:40:53.251Z,64.46
2019-06-26T08:43:25.274Z,63.68
2019-06-26T08:45:54.186Z,62.99
2019-06-26T08:48:38.994Z,62.70
2019-06-26T08:50:54.887Z,62.46
2019-06-26T08:53:23.746Z,62.13
2019-06-26T08:55:52.756Z,62.27
2019-06-26T08:58:22.028Z,62.17
2019-06-26T09:00:50.987Z,61.88
2019-06-26T09:03:19.832Z,61.88
2019-06-26T09:05:48.922Z,61.78
2019-06-26T09:08:18.903Z,62.04
2019-06-26T09:10:47.881Z,62.40
2019-06-26T09:13:16.809Z,62.48
2019-06-26T09:15:49.933Z,62.76
2019-06-26T09:18:34.334Z,63.28
2019-06-26T09:20:49.892Z,63.62
2019-06-26T09:23:19.552Z,64.00
2019-06-26T09:25:48.627Z,64.11
2019-06-26T09:28:18.131Z,63.98
2019-06-26T09:30:46.956Z,63.90
2019-06-26T09:33:16.339Z,63.89
2019-06-26T09:35:45.282Z,63.90
2019-06-26T09:38:15.897Z,63.81
2019-06-26T09:40:44.739Z,63.76
2019-06-26T09:43:13.776Z,63.57
2019-06-26T09:45:44.606Z,63.52
2019-06-26T09:48:13.501Z,63.49
2019-06-26T09:50:42.551Z,63.34
2019-06-26T09:53:11.776Z,63.31
2019-06-26T09:55:40.805Z,63.20
2019-06-26T09:58:12.994Z,63.33
2019-06-26T10:00:40.338Z,63.44
2019-06-26T10:03:09.326Z,63.63
2019-06-26T10:05:38.433Z,63.65
2019-06-26T10:08:07.354Z,63.68
2019-06-26T10:10:36.787Z,63.72
2019-06-26T10:13:05.658Z,63.92
2019-06-26T10:15:34.473Z,64.00
2019-06-26T10:18:03.246Z,64.20
2019-06-26T10:20:32.069Z,64.39
2019-06-26T10:23:00.906Z,64.38
2019-06-26T10:25:29.822Z,64.21
2019-06-26T10:28:00.392Z,63.84
2019-06-26T10:30:29.435Z,63.83
2019-06-26T10:32:58.276Z,64.13
2019-06-26T10:35:28.818Z,64.18
2019-06-26T10:37:57.754Z,64.32
2019-06-26T10:40:27.780Z,64.33
2019-06-26T10:42:59.492Z,64.31
2019-06-26T10:45:29.294Z,64.25
2019-06-26T10:47:58.299Z,64.35
2019-06-26T10:50:27.290Z,64.33
2019-06-26T10:52:56.086Z,64.49
2019-06-26T10:55:25.158Z,64.49
2019-06-26T10:57:54.239Z,64.41
2019-06-26T11:00:24.131Z,64.42
2019-06-26T11:02:53.070Z,64.46
2019-06-26T11:05:22.000Z,64.44
2019-06-26T11:07:51.006Z,64.37
2019-06-26T11:10:20.699Z,64.50
2019-06-26T11:12:49.621Z,64.56
2019-06-26T11:15:19.318Z,64.38
2019-06-26T11:17:49.721Z,64.13
2019-06-26T11:20:18.923Z,63.98
2019-06-26T11:22:51.869Z,63.90
2019-06-26T11:25:21.565Z,63.77
2019-06-26T11:27:53.003Z,63.38
2019-06-26T11:30:26.153Z,63.06
2019-06-26T11:32:54.956Z,63.05
2019-06-26T11:35:23.748Z,63.18
2019-06-26T11:37:52.663Z,63.25
2019-06-26T11:40:21.527Z,63.22
2019-06-26T11:42:50.237Z,63.16
2019-06-26T11:45:19.911Z,63.33
2019-06-26T11:47:50.385Z,63.42
2019-06-26T11:50:19.438Z,63.09
2019-06-26T11:52:48.333Z,62.93
2019-06-26T11:55:17.664Z,63.02
2019-06-26T11:57:46.483Z,63.13
2019-06-26T12:00:21.184Z,63.16
2019-06-26T12:02:50.119Z,63.14
2019-06-26T12:05:20.691Z,63.04
2019-06-26T12:07:49.849Z,62.72
2019-06-26T12:10:19.094Z,62.53
2019-06-26T12:12:48.044Z,62.47
2019-06-26T12:15:18.070Z,62.37
2019-06-26T12:17:46.929Z,62.33
2019-06-26T12:20:19.647Z,62.29
2019-06-26T12:22:47.901Z,62.12
2019-06-26T12:25:16.760Z,62.25
2019-06-26T12:27:45.596Z,62.17
2019-06-26T12:30:16.178Z,62.37
2019-06-26T12:33:01.527Z,62.30
2019-06-26T12:35:15.768Z,62.47
2019-06-26T12:37:46.121Z,62.54
2019-06-26T12:40:16.353Z,62.37
2019-06-26T12:42:45.213Z,62.23
2019-06-26T12:45:14.428Z,61.76
2019-06-26T12:47:43.436Z,61.79
2019-06-26T12:50:13.634Z,61.98
2019-06-26T12:52:42.439Z,62.19
2019-06-26T12:55:11.944Z,62.00
2019-06-26T12:57:41.849Z,61.78
2019-06-26T13:00:13.035Z,61.93
2019-06-26T13:02:44.471Z,61.49
2019-06-26T13:05:13.558Z,61.70
2019-06-26T13:07:42.554Z,61.90
2019-06-26T13:10:11.972Z,62.08
2019-06-26T13:12:41.190Z,61.91
2019-06-26T13:15:19.643Z,62.15
2019-06-26T13:18:01.347Z,62.56
2019-06-26T13:20:31.672Z,62.60
2019-06-26T13:23:01.709Z,62.75
2019-06-26T13:25:39.599Z,62.75
2019-06-26T13:28:09.580Z,62.40
2019-06-26T13:30:42.653Z,62.24
2019-06-26T13:33:21.899Z,62.37
2019-06-26T13:35:54.316Z,62.72
2019-06-26T13:38:36.134Z,62.82
2019-06-26T13:41:06.761Z,62.63
2019-06-26T13:43:44.524Z,62.66
2019-06-26T13:46:14.454Z,62.93
2019-06-26T13:48:50.127Z,62.90
2019-06-26T13:51:26.542Z,62.89
2019-06-26T13:53:57.114Z,63.18
2019-06-26T13:56:27.002Z,63.34
2019-06-26T13:59:01.262Z,62.96
2019-06-26T14:01:32.011Z,62.82
2019-06-26T14:04:01.687Z,62.83
2019-06-26T14:06:32.384Z,62.99
2019-06-26T14:09:01.707Z,63.06
2019-06-26T14:11:31.730Z,62.91
2019-06-26T14:14:03.155Z,63.05
2019-06-26T14:16:34.749Z,62.85
2019-06-26T14:19:04.041Z,62.56
2019-06-26T14:21:33.773Z,62.43
2019-06-26T14:24:06.900Z,62.20
2019-06-26T14:26:37.065Z,61.86
2019-06-26T14:29:20.890Z,61.45
2019-06-26T14:31:42.643Z,60.99
2019-06-26T14:34:11.593Z,61.14
2019-06-26T14:36:40.389Z,61.17
2019-06-26T14:39:09.268Z,60.96
2019-06-26T14:41:39.309Z,61.18
2019-06-26T14:44:08.383Z,61.42
2019-06-26T14:46:37.317Z,61.54
2019-06-26T14:49:07.706Z,61.65
2019-06-26T14:51:45.505Z,61.74
2019-06-26T14:54:07.436Z,61.70
2019-06-26T14:56:40.122Z,61.67
2019-06-26T14:59:12.586Z,61.57
2019-06-26T15:01:41.985Z,61.58
2019-06-26T15:08:17.565Z,61.50
2019-06-26T15:10:50.126Z,61.66
2019-06-26T15:13:19.373Z,61.48
2019-06-26T15:15:48.779Z,61.75
2019-06-26T15:18:17.472Z,61.88
2019-06-26T15:20:46.852Z,61.96
2019-06-26T15:23:15.514Z,61.69
2019-06-26T15:25:46.521Z,61.41
2019-06-26T15:28:15.247Z,61.41
2019-06-26T15:30:44.334Z,61.42
2019-06-26T15:33:13.601Z,61.64
2019-06-26T15:35:42.414Z,61.58
2019-06-26T15:38:11.285Z,61.87
2019-06-26T15:40:40.106Z,62.01
2019-06-26T15:43:09.068Z,62.06
2019-06-26T15:45:39.805Z,61.75
2019-06-26T15:48:08.716Z,61.65
2019-06-26T15:50:37.686Z,61.54
2019-06-26T15:53:06.561Z,61.58
2019-06-26T15:55:35.791Z,61.68
2019-06-26T15:58:07.736Z,61.80
2019-06-26T16:00:36.730Z,61.96
2019-06-26T16:03:05.664Z,61.86
2019-06-26T16:05:34.890Z,61.92
2019-06-26T16:08:05.059Z,62.01
2019-06-26T16:10:34.650Z,61.91
2019-06-26T16:13:03.677Z,61.86
2019-06-26T16:15:32.862Z,62.07
2019-06-26T16:18:10.539Z,62.24
2019-06-26T16:20:39.189Z,62.27
2019-06-26T16:23:07.917Z,62.13
2019-06-26T16:25:37.527Z,62.18
2019-06-26T16:28:07.745Z,62.12
2019-06-26T16:30:36.614Z,61.97
2019-06-26T16:33:05.532Z,61.89
2019-06-26T16:35:34.113Z,61.84
2019-06-26T16:38:04.904Z,61.71
2019-06-26T16:40:33.576Z,61.53
2019-06-26T16:43:02.123Z,61.53
2019-06-26T16:45:30.703Z,61.78
2019-06-26T16:47:59.380Z,61.76
2019-06-26T16:50:28.043Z,61.98
2019-06-26T16:52:56.538Z,61.96
2019-06-26T16:55:26.715Z,61.87
2019-06-26T16:57:56.059Z,61.85
2019-06-26T17:00:24.850Z,62.04
2019-06-26T17:02:53.492Z,61.97
2019-06-26T17:05:22.186Z,62.20
2019-06-26T17:07:50.815Z,62.34
2019-06-26T17:10:19.706Z,62.25
2019-06-26T17:12:48.411Z,61.95
2019-06-26T17:15:18.242Z,61.99
2019-06-26T17:17:46.966Z,62.09
2019-06-26T17:20:16.002Z,61.90
2019-06-26T17:22:44.635Z,62.01
2019-06-26T17:25:15.535Z,62.21
2019-06-26T17:27:44.925Z,62.27
2019-06-26T17:30:13.855Z,62.32
2019-06-26T17:32:42.594Z,62.22
2019-06-26T17:35:11.410Z,62.16
2019-06-26T17:37:40.024Z,62.25
2019-06-26T17:40:09.286Z,62.32
2019-06-26T17:42:39.867Z,62.40
2019-06-26T17:45:09.255Z,62.37
2019-06-26T17:47:37.957Z,62.38
2019-06-26T17:50:07.627Z,62.39
2019-06-26T17:52:38.446Z,62.43
2019-06-26T17:55:08.641Z,62.47
2019-06-26T17:57:37.299Z,62.66
2019-06-26T18:00:11.732Z,62.79
2019-06-26T18:02:40.350Z,62.88
2019-06-26T18:05:09.336Z,62.81
2019-06-26T18:07:38.697Z,62.90
2019-06-26T18:10:07.534Z,63.09
2019-06-26T18:12:36.388Z,63.13
2019-06-26T18:15:07.062Z,63.13
2019-06-26T18:17:35.932Z,63.25
2019-06-26T18:20:06.266Z,63.39
2019-06-26T18:22:34.825Z,63.57
2019-06-26T18:25:03.538Z,63.61
2019-06-26T18:27:32.300Z,63.72
2019-06-26T18:30:01.716Z,63.94
2019-06-26T18:32:34.094Z,64.08
2019-06-26T18:35:02.717Z,64.11
2019-06-26T18:37:31.269Z,64.06
2019-06-26T18:39:59.882Z,64.03
2019-06-26T18:42:28.529Z,64.00
2019-06-26T18:44:57.241Z,64.24
2019-06-26T18:47:26.006Z,64.38
2019-06-26T18:49:56.825Z,64.38
2019-06-26T18:52:25.535Z,64.56
2019-06-26T18:54:54.189Z,64.80
2019-06-26T18:57:23.462Z,64.87
2019-06-26T18:59:52.079Z,65.00
2019-06-26T19:02:21.106Z,65.12
2019-06-26T19:04:49.696Z,65.13
2019-06-26T19:10:09.358Z,65.34
2019-06-26T19:12:38.015Z,65.31
2019-06-26T19:15:07.598Z,65.37
2019-06-26T19:17:36.456Z,65.41
2019-06-26T19:20:08.316Z,65.40
2019-06-26T19:22:37.638Z,65.36
2019-06-26T19:25:08.121Z,65.30
2019-06-26T19:27:36.854Z,65.40
2019-06-26T19:30:08.220Z,65.49
2019-06-26T19:32:39.672Z,65.60
2019-06-26T19:35:18.376Z,65.58
2019-06-26T19:37:40.126Z,65.62
2019-06-26T19:40:09.162Z,65.65
2019-06-26T19:42:40.182Z,65.62
2019-06-26T19:45:10.794Z,65.61
2019-06-26T19:47:39.405Z,65.67
2019-06-26T19:50:09.289Z,65.80
2019-06-26T19:52:37.993Z,65.92
2019-06-26T19:55:06.896Z,65.86
2019-06-26T19:57:35.679Z,65.99
2019-06-26T20:00:10.843Z,66.04
2019-06-26T20:02:41.935Z,66.18
2019-06-26T20:05:11.992Z,66.32
2019-06-26T20:07:40.650Z,66.39
2019-06-26T20:10:10.379Z,66.48
2019-06-26T20:12:39.094Z,66.55
2019-06-26T20:15:08.105Z,66.60
2019-06-26T20:17:36.756Z,66.60
2019-06-26T20:20:08.798Z,66.57
2019-06-26T20:22:37.674Z,66.57
2019-06-26T20:25:08.619Z,66.65
2019-06-26T20:27:37.465Z,66.82
2019-06-26T20:30:09.904Z,67.00
2019-06-26T20:32:38.519Z,67.09
2019-06-26T20:35:07.387Z,67.34
2019-06-26T20:37:36.103Z,67.52
2019-06-26T20:40:09.368Z,67.63
2019-06-26T20:42:38.117Z,67.86
2019-06-26T20:45:07.593Z,68.09
2019-06-26T20:47:36.431Z,68.28
2019-06-26T20:50:07.155Z,68.35
2019-06-26T20:52:36.080Z,68.36
2019-06-26T20:55:06.806Z,68.47
2019-06-26T20:57:35.539Z,68.54
2019-06-26T21:00:08.906Z,68.69
2019-06-26T21:02:37.922Z,68.69
2019-06-26T21:05:07.419Z,68.64
2019-06-26T21:07:38.967Z,68.65
2019-06-26T21:10:08.039Z,68.70
2019-06-26T21:12:36.758Z,68.71
2019-06-26T21:15:07.415Z,68.75
2019-06-26T21:17:36.255Z,68.82
2019-06-26T21:20:05.995Z,68.93
2019-06-26T21:22:34.618Z,68.96
2019-06-26T21:25:17.621Z,69.01
2019-06-26T21:27:34.258Z,69.04
2019-06-26T21:30:02.861Z,69.09
2019-06-26T21:32:31.608Z,69.15
2019-06-26T21:35:00.286Z,69.21
2019-06-26T21:37:28.830Z,69.27
2019-06-26T21:39:58.038Z,69.31
2019-06-26T21:42:26.750Z,69.39
2019-06-26T21:44:55.331Z,69.57
2019-06-26T21:47:24.054Z,69.69
2019-06-26T21:49:54.861Z,69.75
2019-06-26T21:52:23.572Z,69.70
2019-06-26T21:54:52.282Z,69.71
2019-06-26T21:57:20.946Z,69.79
2019-06-26T21:59:49.661Z,69.78
2019-06-26T22:02:18.272Z,69.89
2019-06-26T22:04:46.839Z,69.94
2019-06-26T22:07:15.525Z,69.93
2019-06-26T22:09:44.171Z,69.94
2019-06-26T22:12:12.857Z,70.02
2019-06-26T22:14:41.609Z,70.07
2019-06-26T22:17:10.254Z,70.05
2019-06-26T22:19:38.902Z,69.96
2019-06-26T22:22:07.588Z,69.91
2019-06-26T22:24:36.339Z,69.92
2019-06-26T22:27:05.020Z,69.94
2019-06-26T22:29:33.659Z,69.96
2019-06-26T22:32:02.429Z,70.02
2019-06-26T22:34:31.161Z,70.06
2019-06-26T22:36:59.722Z,70.01
2019-06-26T22:39:28.375Z,70.00
2019-06-26T22:41:57.039Z,69.93
2019-06-26T22:44:25.535Z,69.90
2019-06-26T22:46:54.205Z,69.89
2019-06-26T22:49:22.783Z,69.88
2019-06-26T22:51:51.468Z,69.81
2019-06-26T22:54:20.142Z,69.77
2019-06-26T22:56:48.856Z,69.71
2019-06-26T22:59:18.862Z,69.66
2019-06-26T23:01:47.515Z,69.69
2019-06-26T23:04:16.135Z,69.58
2019-06-26T23:06:44.694Z,69.50
2019-06-26T23:09:13.228Z,69.43
2019-06-26T23:11:41.980Z,69.48
2019-06-26T23:14:10.537Z,69.48
2019-06-26T23:16:39.233Z,69.48
2019-06-26T23:19:07.889Z,69.57
2019-06-26T23:21:36.494Z,69.68
2019-06-26T23:24:05.220Z,69.70
2019-06-26T23:26:34.106Z,69.66
2019-06-26T23:29:02.696Z,69.63
2019-06-26T23:31:31.328Z,69.68
2019-06-26T23:33:59.981Z,69.72
2019-06-26T23:36:28.619Z,69.66
2019-06-26T23:38:57.438Z,69.73
2019-06-26T23:41:26.132Z,69.76
2019-06-26T23:43:57.539Z,69.76
2019-06-26T23:46:26.196Z,69.76
2019-06-26T23:48:54.793Z,69.76
2019-06-26T23:51:23.464Z,69.73
2019-06-26T23:53:52.080Z,69.70
2019-06-26T23:56:20.930Z,69.71
2019-06-26T23:58:49.393Z,69.70
